createdAt,value
2018-09-17T00:00:33.005Z,91.10
2018-09-17T00:03:07.083Z,91.20
2018-09-17T00:05:41.152Z,91.80
2018-09-17T00:08:15.319Z,91.80
2018-09-17T00:10:49.423Z,91.50
2018-09-17T00:13:23.562Z,91.60
2018-09-17T00:15:57.867Z,91.60
2018-09-17T00:18:32.148Z,91.80
2018-09-17T00:21:06.250Z,92.10
2018-09-17T00:23:40.525Z,92.10
2018-09-17T00:26:14.463Z,92.20
2018-09-17T00:28:49.142Z,92.20
2018-09-17T00:31:23.452Z,92.10
2018-09-17T00:33:57.433Z,92.10
2018-09-17T00:36:31.940Z,92.10
2018-09-17T00:39:06.033Z,93.60
2018-09-17T00:41:40.281Z,93.70
2018-09-17T00:44:14.230Z,93.60
2018-09-17T00:46:48.474Z,93.40
2018-09-17T00:49:22.883Z,93.30
2018-09-17T00:51:57.077Z,93.10
2018-09-17T00:54:31.270Z,93.70
2018-09-17T00:57:05.396Z,93.50
2018-09-17T00:59:39.393Z,93.50
2018-09-17T01:02:13.514Z,93.40
2018-09-17T01:04:47.953Z,94.50
2018-09-17T01:07:21.898Z,94.10
2018-09-17T01:09:56.249Z,94.20
2018-09-17T01:12:33.813Z,93.60
2018-09-17T01:15:07.710Z,93.30
2018-09-17T01:17:41.777Z,93.80
2018-09-17T01:20:15.869Z,94.30
2018-09-17T01:22:49.909Z,93.90
2018-09-17T01:25:24.117Z,93.80
2018-09-17T01:27:58.466Z,93.80
2018-09-17T01:30:32.753Z,93.50
2018-09-17T01:33:08.042Z,93.80
2018-09-17T01:35:42.375Z,93.80
2018-09-17T01:38:16.577Z,94.20
2018-09-17T01:40:51.649Z,94.40
2018-09-17T01:43:25.697Z,94.40
2018-09-17T01:45:59.853Z,94.60
2018-09-17T01:48:33.935Z,94.40
2018-09-17T01:51:08.010Z,95.20
2018-09-17T01:53:42.264Z,94.70
2018-09-17T01:56:16.571Z,95.90
2018-09-17T01:58:50.883Z,95.50
2018-09-17T02:01:25.705Z,95.30
2018-09-17T02:04:07.658Z,95.70
2018-09-17T02:06:41.941Z,95.90
2018-09-17T02:09:16.310Z,96.00
2018-09-17T02:11:50.604Z,96.10
2018-09-17T02:14:25.192Z,96.30
2018-09-17T02:16:59.170Z,96.50
2018-09-17T02:19:33.398Z,96.40
2018-09-17T02:22:07.528Z,96.80
2018-09-17T02:24:41.717Z,96.80
2018-09-17T02:27:16.049Z,96.10
2018-09-17T02:29:50.306Z,96.70
2018-09-17T02:32:24.516Z,97.50
2018-09-17T02:34:58.565Z,97.30
2018-09-17T02:37:32.894Z,97.80
2018-09-17T02:40:06.909Z,98.00
2018-09-17T02:42:41.110Z,97.80
2018-09-17T02:45:15.209Z,97.80
2018-09-17T02:47:49.411Z,97.60
2018-09-17T02:50:23.658Z,97.70
2018-09-17T02:52:59.043Z,98.60
2018-09-17T02:55:33.896Z,99.90
2018-09-17T02:58:07.828Z,99.90
2018-09-17T03:00:41.809Z,99.90
2018-09-17T03:03:15.901Z,99.90
2018-09-17T03:05:51.833Z,99.90
2018-09-17T03:08:25.884Z,99.90
2018-09-17T03:11:00.765Z,99.90
2018-09-17T03:13:35.669Z,99.90
2018-09-17T03:16:09.679Z,99.90
2018-09-17T03:18:43.768Z,99.90
2018-09-17T03:21:18.156Z,99.90
2018-09-17T03:23:52.236Z,99.90
2018-09-17T03:26:26.584Z,99.90
2018-09-17T03:29:01.394Z,99.90
2018-09-17T03:31:35.999Z,99.90
2018-09-17T03:34:09.982Z,99.90
2018-09-17T03:36:44.053Z,99.90
2018-09-17T03:39:18.278Z,99.90
2018-09-17T03:41:53.578Z,99.90
2018-09-17T03:44:27.849Z,99.90
2018-09-17T03:47:02.973Z,99.90
2018-09-17T03:49:37.074Z,99.90
2018-09-17T03:52:11.454Z,99.90
2018-09-17T03:54:45.383Z,99.90
2018-09-17T03:57:21.491Z,99.90
2018-09-17T04:02:54.037Z,99.90
2018-09-17T04:05:28.145Z,99.90
2018-09-17T04:08:02.258Z,99.90
2018-09-17T04:10:37.561Z,99.90
2018-09-17T04:13:11.706Z,99.90
2018-09-17T04:15:46.595Z,99.90
2018-09-17T04:18:21.848Z,99.90
2018-09-17T04:20:56.248Z,99.90
2018-09-17T04:23:30.347Z,99.90
2018-09-17T04:26:04.517Z,99.90
2018-09-17T04:28:38.655Z,99.90
2018-09-17T04:31:15.111Z,99.90
2018-09-17T04:33:49.727Z,99.90
2018-09-17T04:36:24.183Z,99.90
2018-09-17T04:38:58.410Z,99.90
2018-09-17T04:41:32.515Z,99.90
2018-09-17T04:44:06.393Z,99.90
2018-09-17T04:46:40.425Z,99.90
2018-09-17T04:49:14.575Z,99.90
2018-09-17T04:51:48.534Z,99.90
2018-09-17T04:54:22.634Z,99.90
2018-09-17T04:56:56.773Z,99.90
2018-09-17T04:59:30.882Z,99.90
2018-09-17T05:02:05.305Z,99.90
2018-09-17T05:04:39.406Z,99.90
2018-09-17T05:07:14.968Z,99.90
2018-09-17T05:09:49.883Z,99.90
2018-09-17T05:12:24.008Z,99.90
2018-09-17T05:14:58.199Z,99.90
2018-09-17T05:17:32.228Z,99.90
2018-09-17T05:20:06.378Z,99.90
2018-09-17T05:22:40.489Z,99.90
2018-09-17T05:25:14.670Z,99.90
2018-09-17T05:27:48.778Z,99.90
2018-09-17T05:30:22.947Z,99.90
2018-09-17T05:32:57.043Z,99.90
2018-09-17T05:35:31.842Z,99.90
2018-09-17T05:38:05.969Z,99.90
2018-09-17T05:40:39.969Z,99.90
2018-09-17T05:43:14.809Z,99.90
2018-09-17T05:45:48.726Z,99.90
2018-09-17T05:48:23.561Z,99.90
2018-09-17T05:50:57.661Z,99.90
2018-09-17T05:53:31.768Z,99.90
2018-09-17T05:56:05.882Z,99.90
2018-09-17T05:58:40.010Z,99.90
2018-09-17T06:01:14.115Z,99.90
2018-09-17T06:03:48.262Z,99.90
2018-09-17T06:06:22.351Z,99.90
2018-09-17T06:08:56.470Z,99.90
2018-09-17T06:11:30.553Z,99.90
2018-09-17T06:14:05.407Z,99.90
2018-09-17T06:16:39.550Z,99.90
2018-09-17T06:19:13.625Z,99.90
2018-09-17T06:21:47.646Z,99.90
2018-09-17T06:24:21.743Z,99.90
2018-09-17T06:26:55.754Z,99.90
2018-09-17T06:29:29.787Z,99.90
2018-09-17T06:32:03.857Z,99.90
2018-09-17T06:34:37.909Z,99.90
2018-09-17T06:37:12.142Z,99.90
2018-09-17T06:39:48.387Z,99.90
2018-09-17T06:42:22.361Z,99.90
2018-09-17T06:44:56.318Z,99.90
2018-09-17T06:47:30.462Z,99.90
2018-09-17T06:50:04.451Z,99.90
2018-09-17T06:52:38.609Z,99.90
2018-09-17T06:55:12.665Z,99.90
2018-09-17T06:57:46.803Z,99.90
2018-09-17T07:00:20.941Z,99.90
2018-09-17T07:02:55.013Z,99.90
2018-09-17T07:05:29.134Z,99.90
2018-09-17T07:08:03.578Z,99.90
2018-09-17T07:10:37.791Z,99.90
2018-09-17T07:13:11.858Z,99.90
2018-09-17T07:15:45.972Z,99.90
2018-09-17T07:18:20.141Z,99.90
2018-09-17T07:20:54.914Z,99.90
2018-09-17T07:23:29.765Z,99.90
2018-09-17T07:26:04.200Z,99.90
2018-09-17T07:28:38.225Z,99.90
2018-09-17T07:31:12.391Z,99.90
2018-09-17T07:33:46.542Z,99.90
2018-09-17T07:36:20.805Z,99.90
2018-09-17T07:38:55.708Z,99.90
2018-09-17T07:41:29.632Z,99.90
2018-09-17T07:44:05.277Z,99.90
2018-09-17T07:46:40.648Z,99.90
2018-09-17T07:49:15.816Z,99.90
2018-09-17T07:51:51.218Z,99.90
2018-09-17T07:54:25.514Z,99.90
2018-09-17T07:56:59.422Z,99.90
2018-09-17T07:59:33.559Z,99.90
2018-09-17T08:02:07.826Z,99.90
2018-09-17T08:04:41.977Z,99.90
2018-09-17T08:07:16.913Z,99.90
2018-09-17T08:09:50.929Z,99.90
2018-09-17T08:12:25.229Z,99.90
2018-09-17T08:14:59.565Z,99.90
2018-09-17T08:17:33.754Z,99.90
2018-09-17T08:20:07.941Z,99.90
2018-09-17T08:22:42.018Z,99.90
2018-09-17T08:25:16.210Z,99.90
2018-09-17T08:27:50.494Z,99.90
2018-09-17T08:30:25.617Z,99.00
2018-09-17T08:33:00.011Z,99.00
2018-09-17T08:35:35.105Z,97.60
2018-09-17T08:38:09.419Z,97.60
2018-09-17T08:40:43.635Z,96.80
2018-09-17T08:43:18.458Z,96.00
2018-09-17T08:45:52.774Z,94.80
2018-09-17T08:48:27.094Z,93.90
2018-09-17T08:51:02.326Z,95.10
2018-09-17T08:53:36.477Z,94.60
2018-09-17T08:56:10.613Z,95.00
2018-09-17T08:58:44.757Z,93.90
2018-09-17T09:01:18.779Z,94.10
2018-09-17T09:03:53.824Z,92.90
2018-09-17T09:06:28.784Z,91.60
2018-09-17T09:09:03.222Z,91.50
2018-09-17T09:11:37.830Z,90.70
2018-09-17T09:14:12.129Z,90.80
2018-09-17T09:16:46.284Z,90.60
2018-09-17T09:19:20.373Z,90.10
2018-09-17T09:21:54.445Z,90.50
2018-09-17T09:24:28.543Z,91.20
2018-09-17T09:27:02.718Z,91.60
2018-09-17T09:29:36.823Z,91.70
2018-09-17T09:32:10.921Z,90.70
2018-09-17T09:34:45.942Z,87.40
2018-09-17T09:37:19.981Z,86.70
2018-09-17T09:39:54.289Z,85.30
2018-09-17T09:42:28.373Z,83.20
2018-09-17T09:45:02.670Z,84.40
2018-09-17T09:47:36.722Z,84.50
2018-09-17T09:50:11.092Z,84.70
2018-09-17T09:52:45.283Z,84.00
2018-09-17T09:55:19.712Z,82.40
2018-09-17T09:57:53.845Z,82.70
2018-09-17T10:00:28.221Z,81.50
2018-09-17T10:03:02.494Z,81.10
2018-09-17T10:05:37.460Z,79.40
2018-09-17T10:08:12.228Z,79.40
2018-09-17T10:10:46.305Z,79.90
2018-09-17T10:13:21.158Z,81.00
2018-09-17T10:15:55.365Z,79.80
2018-09-17T10:18:29.569Z,78.80
2018-09-17T10:21:03.734Z,79.10
2018-09-17T10:23:38.106Z,78.60
2018-09-17T10:26:12.154Z,77.00
2018-09-17T10:28:46.396Z,73.80
2018-09-17T10:31:20.617Z,71.90
2018-09-17T10:33:55.016Z,73.20
2018-09-17T10:36:30.005Z,71.50
2018-09-17T10:39:04.167Z,71.40
2018-09-17T10:41:38.487Z,71.30
2018-09-17T10:44:12.972Z,71.40
2018-09-17T10:46:48.076Z,68.40
2018-09-17T10:49:22.393Z,68.30
2018-09-17T10:51:56.486Z,66.90
2018-09-17T10:54:31.131Z,65.70
2018-09-17T10:57:05.210Z,65.50
2018-09-17T10:59:39.668Z,64.10
2018-09-17T11:02:13.812Z,64.90
2018-09-17T11:04:48.023Z,63.50
2018-09-17T11:07:26.116Z,63.70
2018-09-17T11:10:00.687Z,63.70
2018-09-17T11:12:35.668Z,65.00
2018-09-17T11:15:09.804Z,64.90
2018-09-17T11:17:44.240Z,64.20
2018-09-17T11:20:19.645Z,63.60
2018-09-17T11:22:54.305Z,62.50
2018-09-17T11:25:28.608Z,62.00
2018-09-17T11:28:03.512Z,60.80
2018-09-17T11:30:37.991Z,60.10
2018-09-17T11:33:11.911Z,58.30
2018-09-17T11:35:48.378Z,59.10
2018-09-17T11:38:22.750Z,57.70
2018-09-17T11:40:59.861Z,57.80
2018-09-17T11:43:33.975Z,57.50
2018-09-17T11:46:08.003Z,57.40
2018-09-17T11:48:41.945Z,56.80
2018-09-17T11:51:16.115Z,54.80
2018-09-17T11:53:50.192Z,56.30
2018-09-17T11:56:24.348Z,55.10
2018-09-17T11:58:58.788Z,52.80
2018-09-17T12:01:32.886Z,51.70
2018-09-17T12:04:07.696Z,50.30
2018-09-17T12:06:42.088Z,50.20
2018-09-17T12:09:16.681Z,52.30
2018-09-17T12:11:51.196Z,52.60
2018-09-17T12:14:25.972Z,54.10
2018-09-17T12:17:00.045Z,54.10
2018-09-17T12:19:34.429Z,53.90
2018-09-17T12:22:09.265Z,54.50
2018-09-17T12:24:43.621Z,54.40
2018-09-17T12:27:17.899Z,54.50
2018-09-17T12:29:52.248Z,53.50
2018-09-17T12:32:26.771Z,53.20
2018-09-17T12:35:00.776Z,53.60
2018-09-17T12:37:34.797Z,53.40
2018-09-17T12:40:09.187Z,53.10
2018-09-17T12:42:44.352Z,52.30
2018-09-17T12:45:18.481Z,53.00
2018-09-17T12:47:52.558Z,52.10
2018-09-17T12:50:26.510Z,52.20
2018-09-17T12:53:00.616Z,51.60
2018-09-17T12:55:35.944Z,50.40
2018-09-17T12:58:12.692Z,50.30
2018-09-17T13:00:46.829Z,49.20
2018-09-17T13:03:21.294Z,48.40
2018-09-17T13:05:55.424Z,48.50
2018-09-17T13:08:30.577Z,47.70
2018-09-17T13:11:04.617Z,47.70
2018-09-17T13:13:38.938Z,47.70
2018-09-17T13:16:13.734Z,45.40
2018-09-17T13:18:48.633Z,45.20
2018-09-17T13:21:23.328Z,45.20
2018-09-17T13:23:59.308Z,45.10
2018-09-17T13:26:33.409Z,44.90
2018-09-17T13:29:07.707Z,44.60
2018-09-17T13:31:41.815Z,45.60
2018-09-17T13:34:17.777Z,42.10
2018-09-17T13:36:52.400Z,42.00
2018-09-17T13:39:26.745Z,43.40
2018-09-17T13:42:01.134Z,42.30
2018-09-17T13:44:36.626Z,41.60
2018-09-17T13:47:11.483Z,42.70
2018-09-17T13:49:46.268Z,42.30
2018-09-17T13:52:20.168Z,40.70
2018-09-17T13:54:55.357Z,40.70
2018-09-17T13:57:29.560Z,40.20
2018-09-17T14:00:07.145Z,40.80
2018-09-17T14:03:01.662Z,41.40
2018-09-17T14:05:55.951Z,40.20
2018-09-17T14:11:23.040Z,39.50
2018-09-17T14:17:35.292Z,39.70
2018-09-17T14:20:32.909Z,40.30
2018-09-17T14:23:10.518Z,40.00
2018-09-17T14:25:44.461Z,40.00
2018-09-17T14:28:18.441Z,39.80
2018-09-17T14:30:52.724Z,40.10
2018-09-17T14:33:26.771Z,39.10
2018-09-17T14:36:04.786Z,39.70
2018-09-17T14:38:38.929Z,39.70
2018-09-17T14:41:12.945Z,37.90
2018-09-17T14:43:47.212Z,38.50
2018-09-17T14:46:26.060Z,36.00
2018-09-17T14:49:04.057Z,36.00
2018-09-17T14:51:38.615Z,36.30
2018-09-17T14:54:12.876Z,36.10
2018-09-17T14:56:46.954Z,36.00
2018-09-17T14:59:22.372Z,36.40
2018-09-17T15:01:56.447Z,35.90
2018-09-17T15:04:30.450Z,36.60
2018-09-17T15:10:16.426Z,36.90
2018-09-17T15:12:50.346Z,36.60
2018-09-17T15:15:24.500Z,35.30
2018-09-17T15:17:59.293Z,35.50
2018-09-17T15:20:33.184Z,35.50
2018-09-17T15:23:07.175Z,35.30
2018-09-17T15:25:41.233Z,36.30
2018-09-17T15:28:15.308Z,34.00
2018-09-17T15:30:49.430Z,33.30
2018-09-17T15:33:23.440Z,31.90
2018-09-17T15:35:58.269Z,32.30
2018-09-17T15:38:32.915Z,32.00
2018-09-17T15:41:07.907Z,32.80
2018-09-17T15:43:41.754Z,32.80
2018-09-17T15:46:15.829Z,34.10
2018-09-17T15:48:49.862Z,32.30
2018-09-17T15:51:23.880Z,31.40
2018-09-17T15:54:02.597Z,32.00
2018-09-17T15:56:36.747Z,32.10
2018-09-17T15:59:10.921Z,32.00
2018-09-17T16:01:45.749Z,32.20
2018-09-17T16:04:21.701Z,32.10
2018-09-17T16:06:55.614Z,31.80
2018-09-17T16:09:29.661Z,32.60
2018-09-17T16:12:03.642Z,32.30
2018-09-17T16:14:37.795Z,32.90
2018-09-17T16:17:12.375Z,34.00
2018-09-17T16:22:34.833Z,33.80
2018-09-17T16:25:08.893Z,35.40
2018-09-17T16:27:42.896Z,33.40
2018-09-17T16:30:16.890Z,35.00
2018-09-17T16:32:51.042Z,35.90
2018-09-17T16:35:25.131Z,37.00
2018-09-17T16:37:59.254Z,37.40
2018-09-17T16:40:33.237Z,37.80
2018-09-17T16:43:07.337Z,37.90
2018-09-17T16:45:41.798Z,36.60
2018-09-17T16:48:15.863Z,38.80
2018-09-17T16:50:50.625Z,39.80
2018-09-17T16:53:24.859Z,39.80
2018-09-17T16:55:59.003Z,40.60
2018-09-17T16:58:35.098Z,40.90
2018-09-17T17:01:09.282Z,41.60
2018-09-17T17:03:43.329Z,41.90
2018-09-17T17:06:17.435Z,42.80
2018-09-17T17:08:51.545Z,43.90
2018-09-17T17:11:25.563Z,44.80
2018-09-17T17:13:59.573Z,45.90
2018-09-17T17:16:34.421Z,45.20
2018-09-17T17:19:08.413Z,45.20
2018-09-17T17:21:42.575Z,46.10
2018-09-17T17:24:16.625Z,45.80
2018-09-17T17:26:51.456Z,46.10
2018-09-17T17:29:26.203Z,46.40
2018-09-17T17:32:00.925Z,47.00
2018-09-17T17:34:49.574Z,47.90
2018-09-17T17:37:23.471Z,47.80
2018-09-17T17:39:57.644Z,48.40
2018-09-17T17:42:32.321Z,49.90
2018-09-17T17:45:06.289Z,49.90
2018-09-17T17:47:41.424Z,49.70
2018-09-17T17:50:15.513Z,50.30
2018-09-17T17:52:56.686Z,50.40
2018-09-17T17:55:30.801Z,50.20
2018-09-17T17:58:04.948Z,50.50
2018-09-17T18:00:38.982Z,50.80
2018-09-17T18:03:12.878Z,50.80
2018-09-17T18:05:46.836Z,51.50
2018-09-17T18:08:23.891Z,52.00
2018-09-17T18:10:58.002Z,52.10
2018-09-17T18:13:32.964Z,52.70
2018-09-17T18:16:07.129Z,52.60
2018-09-17T18:18:42.073Z,53.20
2018-09-17T18:21:16.256Z,53.60
2018-09-17T18:23:50.164Z,54.30
2018-09-17T18:26:24.933Z,54.80
2018-09-17T18:28:59.213Z,54.80
2018-09-17T18:31:33.210Z,55.10
2018-09-17T18:34:07.326Z,55.20
2018-09-17T18:36:41.273Z,55.40
2018-09-17T18:39:15.279Z,55.50
2018-09-17T18:41:49.359Z,55.70
2018-09-17T18:44:23.945Z,55.90
2018-09-17T18:46:58.833Z,55.90
2018-09-17T18:49:32.885Z,55.80
2018-09-17T18:52:06.957Z,56.50
2018-09-17T18:54:40.923Z,56.70
2018-09-17T18:57:15.033Z,56.70
2018-09-17T18:59:49.967Z,56.80
2018-09-17T19:02:24.002Z,56.80
2018-09-17T19:05:06.026Z,57.20
2018-09-17T19:07:39.915Z,57.20
2018-09-17T19:10:13.830Z,57.20
2018-09-17T19:12:48.592Z,57.50
2018-09-17T19:15:22.769Z,57.50
2018-09-17T19:17:56.952Z,57.40
2018-09-17T19:20:31.836Z,58.10
2018-09-17T19:23:05.845Z,58.10
2018-09-17T19:25:39.968Z,58.00
2018-09-17T19:28:14.078Z,58.20
2018-09-17T19:30:48.189Z,58.50
2018-09-17T19:33:22.290Z,58.70
2018-09-17T19:35:56.521Z,58.90
2018-09-17T19:38:30.534Z,59.40
2018-09-17T19:41:04.616Z,59.70
2018-09-17T19:43:39.476Z,59.40
2018-09-17T19:46:13.688Z,59.30
2018-09-17T19:48:47.658Z,59.90
2018-09-17T19:51:21.702Z,59.70
2018-09-17T19:53:55.867Z,60.00
2018-09-17T19:56:29.913Z,60.30
2018-09-17T19:59:04.069Z,60.00
2018-09-17T20:01:38.163Z,60.30
2018-09-17T20:04:12.258Z,59.80
2018-09-17T20:06:46.383Z,60.10
2018-09-17T20:09:20.315Z,60.10
2018-09-17T20:11:55.125Z,60.90
2018-09-17T20:14:29.986Z,60.50
2018-09-17T20:17:04.075Z,60.40
2018-09-17T20:19:38.158Z,60.70
2018-09-17T20:22:12.304Z,60.60
2018-09-17T20:24:46.408Z,61.10
2018-09-17T20:27:20.492Z,61.50
2018-09-17T20:29:54.619Z,61.80
2018-09-17T20:32:28.638Z,62.00
2018-09-17T20:35:02.604Z,62.10
2018-09-17T20:37:36.685Z,62.60
2018-09-17T20:40:10.654Z,63.10
2018-09-17T20:42:44.700Z,63.50
2018-09-17T20:45:18.769Z,63.60
2018-09-17T20:47:52.822Z,63.90
2018-09-17T20:50:26.897Z,63.80
2018-09-17T20:53:00.871Z,64.70
2018-09-17T20:55:35.110Z,65.60
2018-09-17T20:58:09.238Z,64.90
2018-09-17T21:00:43.360Z,65.60
2018-09-17T21:03:17.522Z,66.70
2018-09-17T21:05:51.517Z,66.50
2018-09-17T21:08:26.243Z,67.60
2018-09-17T21:11:00.314Z,67.40
2018-09-17T21:13:34.340Z,68.60
2018-09-17T21:16:08.332Z,70.10
2018-09-17T21:18:42.412Z,69.10
2018-09-17T21:21:16.608Z,68.40
2018-09-17T21:23:50.586Z,68.00
2018-09-17T21:26:24.651Z,66.60
2018-09-17T21:28:58.597Z,68.90
2018-09-17T21:31:33.257Z,70.90
2018-09-17T21:34:07.386Z,70.90
2018-09-17T21:36:41.450Z,70.80
2018-09-17T21:39:15.522Z,70.40
2018-09-17T21:41:49.577Z,71.80
2018-09-17T21:44:23.598Z,70.20
2018-09-17T21:46:57.714Z,71.40
2018-09-17T21:49:31.654Z,71.10
2018-09-17T21:52:05.772Z,72.10
2018-09-17T21:54:39.908Z,72.10
2018-09-17T21:57:13.969Z,72.40
2018-09-17T21:59:48.809Z,72.40
2018-09-17T22:02:22.981Z,72.40
2018-09-17T22:04:57.017Z,71.70
2018-09-17T22:07:31.130Z,72.40
2018-09-17T22:10:05.053Z,72.30
2018-09-17T22:12:39.163Z,72.10
2018-09-17T22:15:13.153Z,72.70
2018-09-17T22:17:48.109Z,72.20
2018-09-17T22:20:22.258Z,72.10
2018-09-17T22:22:56.274Z,73.10
2018-09-17T22:25:30.361Z,72.60
2018-09-17T22:28:04.405Z,72.90
2018-09-17T22:30:38.469Z,72.30
2018-09-17T22:33:12.560Z,72.70
2018-09-17T22:35:46.721Z,72.70
2018-09-17T22:38:20.895Z,73.40
2018-09-17T22:40:54.954Z,72.70
2018-09-17T22:43:28.974Z,74.00
2018-09-17T22:46:03.057Z,74.10
2018-09-17T22:48:37.003Z,74.60
2018-09-17T22:51:11.105Z,74.10
2018-09-17T22:53:45.174Z,74.20
2018-09-17T22:56:19.302Z,74.80
2018-09-17T22:58:53.361Z,75.50
2018-09-17T23:01:27.453Z,75.10
2018-09-17T23:04:01.547Z,74.80
2018-09-17T23:06:35.665Z,75.20
2018-09-17T23:09:09.739Z,75.30
2018-09-17T23:11:43.784Z,75.40
2018-09-17T23:14:17.725Z,75.20
2018-09-17T23:16:52.538Z,75.40
2018-09-17T23:19:26.712Z,75.40
2018-09-17T23:22:00.840Z,75.40
2018-09-17T23:24:34.956Z,75.10
2018-09-17T23:27:09.079Z,76.00
2018-09-17T23:29:43.888Z,76.80
2018-09-17T23:32:18.042Z,76.80
2018-09-17T23:34:52.123Z,77.80
2018-09-17T23:37:26.244Z,79.10
2018-09-17T23:40:00.250Z,79.50
2018-09-17T23:42:34.241Z,79.20
2018-09-17T23:45:08.992Z,80.50
2018-09-17T23:47:43.116Z,80.50
2018-09-17T23:50:17.964Z,81.60
2018-09-17T23:52:52.077Z,81.50
2018-09-17T23:55:26.185Z,81.20
2018-09-17T23:58:00.272Z,80.00
